Pottersville, Missouri
Current Conditions -  °F | °C
As of 3:43 PM on Saturday 22 Nov 2014 (Local Time) from KUNO Reporting Station
Moderate Rain Moderate Rain  
Wind Chill: 51°   Ceiling: 800
Heat Index: 51°   Visibility: 3mi
Dew Point: 49°   Wind: 10mph
Humidity: 92%   Direction: 180°S
Pressure: 30.01"   Gusts: NA
Location:  36.7°N, 92.03°W
Report Text: KUNO 222143Z AUTO 18009KT 3SM RA BR BKN008 BKN049 OVC090 11/09 A3001 RMK AO2 P0008 T01060094
Loading
Personal Weather Stations






























Interactive Weather Map New forecast layout! Learn more

10-Day Weather Forecast

Advertisements
Track Severe Weather on mobile